Time;durP1;ratioP1;P1;durP2;ratioP2;P2;SDS_P1;SDS_P2;PMS_P1;PMS_P2;Temp;Humidity;BMP_temperature;BMP_pressure;BME280_temperature;BME280_humidity;BME280_pressure;Samples;Min_cycle;Max_cycle;Signal;HPM_P1;HPM_P2
2021/04/08 00:02:05;;;;;;;9.25;4.35;;;;;;;;;;5094072;28;20379;-77
2021/04/08 00:04:30;;;;;;;20.92;4.60;;;;;;;;;;5093827;28;20036;-78
2021/04/08 00:06:56;;;;;;;15.68;3.78;;;;;;;;;;5094981;28;20100;-78
2021/04/08 00:09:22;;;;;;;9.25;2.85;;;;;;;;;;5101470;28;20035;-78
2021/04/08 00:11:48;;;;;;;16.20;3.45;;;;;;;;;;5115046;28;20060;-78
2021/04/08 00:14:14;;;;;;;14.85;4.00;;;;;;;;;;5099639;28;20052;-78
2021/04/08 00:16:40;;;;;;;10.85;3.47;;;;;;;;;;5094644;28;20051;-78
2021/04/08 00:19:06;;;;;;;14.25;3.45;;;;;;;;;;5094758;28;20032;-77
2021/04/08 00:21:32;;;;;;;17.55;3.58;;;;;;;;;;5094755;28;20039;-78
2021/04/08 00:23:58;;;;;;;20.63;5.05;;;;;;;;;;5094405;28;20458;-78
2021/04/08 00:26:23;;;;;;;14.65;4.05;;;;;;;;;;5093314;28;20047;-78
2021/04/08 00:28:48;;;;;;;13.90;3.80;;;;;;;;;;5094196;28;20032;-78
2021/04/08 00:31:14;;;;;;;11.02;3.20;;;;;;;;;;5094342;28;20032;-78
2021/04/08 00:33:39;;;;;;;11.52;3.30;;;;;;;;;;5094654;28;20028;-78
2021/04/08 00:36:05;;;;;;;18.00;3.70;;;;;;;;;;5094185;28;20104;-78
2021/04/08 00:38:30;;;;;;;13.38;3.15;;;;;;;;;;5093106;28;20477;-78
2021/04/08 00:40:56;;;;;;;13.55;3.35;;;;;;;;;;5094276;28;20032;-78
2021/04/08 00:43:22;;;;;;;21.73;4.30;;;;;;;;;;5088390;28;20044;-78
2021/04/08 00:45:47;;;;;;;13.40;2.95;;;;;;;;;;5074285;28;20039;-77
2021/04/08 00:48:13;;;;;;;15.52;4.00;;;;;;;;;;5073926;28;20474;-77
2021/04/08 00:50:38;;;;;;;12.15;3.25;;;;;;;;;;5074012;28;20135;-77
2021/04/08 00:53:07;;;;;;;11.05;3.58;;;;;;;;;;5074104;28;20112;-78
2021/04/08 00:55:35;;;;;;;17.02;3.78;;;;;;;;;;5073714;28;20068;-78
2021/04/08 00:58:04;;;;;;;16.70;3.63;;;;;;;;;;5073752;28;20071;-78
2021/04/08 01:00:31;;;;;;;14.57;3.30;;;;;;;;;;5073564;28;20371;-77
2021/04/08 01:02:57;;;;;;;13.43;3.60;;;;;;;;;;5073863;28;20483;-77
2021/04/08 01:05:23;;;;;;;7.88;3.30;;;;;;;;;;5073651;28;20032;-78
2021/04/08 01:07:50;;;;;;;11.38;3.30;;;;;;;;;;5073493;28;20028;-77
2021/04/08 01:10:17;;;;;;;15.45;3.83;;;;;;;;;;5085786;28;20064;-78
2021/04/08 01:12:42;;;;;;;12.30;3.50;;;;;;;;;;5092558;28;20039;-77
2021/04/08 01:15:09;;;;;;;12.90;4.30;;;;;;;;;;5092660;28;20040;-77
2021/04/08 01:17:58;;;;;;;17.52;5.22;;;;;;;;;;5093704;28;20028;-78
2021/04/08 01:21:03;;;;;;;12.07;3.63;;;;;;;;;;5093516;28;20067;-77
2021/04/08 01:23:55;;;;;;;14.07;4.30;;;;;;;;;;5093676;28;20032;-77
2021/04/08 01:26:51;;;;;;;15.50;3.50;;;;;;;;;;5093436;28;20512;-78
2021/04/08 01:29:47;;;;;;;16.23;3.90;;;;;;;;;;5093206;28;20512;-78
2021/04/08 01:32:15;;;;;;;15.90;4.70;;;;;;;;;;5091704;28;20123;-78
2021/04/08 01:34:44;;;;;;;15.55;3.78;;;;;;;;;;5092970;28;20019;-78
2021/04/08 01:37:11;;;;;;;13.07;4.53;;;;;;;;;;5093174;28;20036;-78
2021/04/08 01:39:39;;;;;;;12.75;3.80;;;;;;;;;;5092165;28;20036;-78
2021/04/08 01:42:06;;;;;;;24.60;5.75;;;;;;;;;;5071823;28;20037;-78
2021/04/08 01:44:34;;;;;;;15.93;4.43;;;;;;;;;;5073171;28;20072;-78
2021/04/08 01:47:03;;;;;;;24.75;6.03;;;;;;;;;;5071965;28;20036;-78
2021/04/08 01:49:32;;;;;;;14.27;4.20;;;;;;;;;;5072911;28;20032;-78
2021/04/08 01:51:59;;;;;;;13.85;4.32;;;;;;;;;;5072726;28;20103;-78
2021/04/08 01:54:26;;;;;;;17.30;4.25;;;;;;;;;;5071705;28;20090;-78
2021/04/08 01:56:57;;;;;;;14.68;4.65;;;;;;;;;;5073215;28;20036;-78
2021/04/08 01:59:24;;;;;;;13.15;4.47;;;;;;;;;;5072831;28;20127;-78
2021/04/08 02:01:51;;;;;;;14.07;3.75;;;;;;;;;;5071532;28;20119;-78
2021/04/08 02:04:17;;;;;;;23.83;5.00;;;;;;;;;;5072841;28;20047;-78
2021/04/08 02:06:44;;;;;;;22.25;5.15;;;;;;;;;;5072776;28;20043;-78
2021/04/08 02:09:11;;;;;;;22.25;4.93;;;;;;;;;;5075537;28;20049;-78
2021/04/08 02:11:38;;;;;;;14.95;4.70;;;;;;;;;;5093004;28;20028;-78
2021/04/08 02:14:04;;;;;;;18.95;4.43;;;;;;;;;;5092912;28;20055;-78
2021/04/08 02:16:30;;;;;;;16.33;4.82;;;;;;;;;;5093088;28;20051;-78
2021/04/08 02:18:57;;;;;;;15.00;4.93;;;;;;;;;;5093108;28;20031;-78
2021/04/08 02:21:25;;;;;;;13.48;4.07;;;;;;;;;;5093167;28;20039;-77
2021/04/08 02:23:51;;;;;;;15.48;4.28;;;;;;;;;;5092985;28;20031;-78
2021/04/08 02:26:18;;;;;;;13.23;4.45;;;;;;;;;;5093081;28;20118;-78
2021/04/08 02:28:45;;;;;;;18.27;3.95;;;;;;;;;;5092837;28;20040;-78
2021/04/08 02:31:11;;;;;;;20.92;6.10;;;;;;;;;;5092995;28;20640;-78
2021/04/08 02:33:38;;;;;;;15.75;4.50;;;;;;;;;;5091655;28;20028;-78
2021/04/08 02:36:04;;;;;;;15.43;4.32;;;;;;;;;;5092835;28;20065;-78
2021/04/08 02:38:32;;;;;;;20.63;4.78;;;;;;;;;;5092916;28;20040;-77
2021/04/08 02:40:58;;;;;;;18.50;5.05;;;;;;;;;;5106180;28;20055;-78
2021/04/08 02:43:24;;;;;;;18.48;4.50;;;;;;;;;;5113017;28;20213;-78
2021/04/08 02:45:50;;;;;;;24.25;4.97;;;;;;;;;;5114301;28;20067;-78
2021/04/08 02:48:18;;;;;;;19.70;5.15;;;;;;;;;;5116802;28;20114;-78
2021/04/08 02:50:54;;;;;;;16.73;4.18;;;;;;;;;;5115626;28;20443;-77
2021/04/08 02:53:37;;;;;;;11.55;4.60;;;;;;;;;;5117233;28;20036;-78
2021/04/08 02:56:43;;;;;;;21.50;4.85;;;;;;;;;;5116562;28;20591;-78
2021/04/08 02:59:12;;;;;;;21.05;6.18;;;;;;;;;;5116085;28;20060;-78
2021/04/08 03:01:51;;;;;;;11.98;3.75;;;;;;;;;;5116788;28;20043;-78
2021/04/08 03:04:19;;;;;;;18.30;4.60;;;;;;;;;;5116461;28;20027;-78
2021/04/08 03:06:46;;;;;;;20.77;4.20;;;;;;;;;;5116616;28;20428;-78
2021/04/08 03:09:12;;;;;;;12.45;4.15;;;;;;;;;;5115703;28;20032;-78
2021/04/08 03:11:38;;;;;;;22.65;5.80;;;;;;;;;;5115213;28;20496;-77
2021/04/08 03:14:08;;;;;;;26.25;4.32;;;;;;;;;;5116224;28;20032;-77
2021/04/08 03:16:39;;;;;;;17.10;5.60;;;;;;;;;;5116101;28;20039;-78
2021/04/08 03:19:10;;;;;;;17.00;3.60;;;;;;;;;;5116285;28;20032;-78
2021/04/08 03:21:36;;;;;;;18.95;4.20;;;;;;;;;;5116530;28;20042;-78
2021/04/08 03:24:02;;;;;;;12.60;4.07;;;;;;;;;;5116594;28;20032;-78
2021/04/08 03:26:29;;;;;;;17.45;4.03;;;;;;;;;;5116110;28;20036;-78
2021/04/08 03:28:55;;;;;;;22.55;4.35;;;;;;;;;;5116188;28;20032;-78
2021/04/08 03:31:22;;;;;;;21.23;4.95;;;;;;;;;;5116271;28;20045;-78
2021/04/08 03:33:48;;;;;;;12.52;3.88;;;;;;;;;;5116112;28;20112;-78
2021/04/08 03:36:15;;;;;;;18.92;4.00;;;;;;;;;;5116217;28;20035;-78
2021/04/08 03:38:41;;;;;;;16.08;4.40;;;;;;;;;;5115029;28;20467;-78
2021/04/08 03:41:07;;;;;;;9.27;4.40;;;;;;;;;;5116031;28;20350;-78
2021/04/08 03:43:35;;;;;;;12.23;5.03;;;;;;;;;;5116023;28;20135;-77
2021/04/08 03:46:02;;;;;;;16.27;4.25;;;;;;;;;;5115894;28;20043;-77
2021/04/08 03:48:30;;;;;;;15.27;4.95;;;;;;;;;;5114974;28;20092;-78
2021/04/08 03:50:56;;;;;;;22.50;4.68;;;;;;;;;;5115716;27;20107;-78
2021/04/08 03:53:22;;;;;;;21.55;6.00;;;;;;;;;;5115694;27;20042;-77
2021/04/08 03:55:48;;;;;;;25.98;7.05;;;;;;;;;;5115182;28;20032;-77
2021/04/08 03:58:16;;;;;;;16.88;4.55;;;;;;;;;;5113652;28;20512;-77
2021/04/08 04:00:41;;;;;;;18.75;6.13;;;;;;;;;;5115453;28;20039;-78
2021/04/08 04:03:09;;;;;;;27.95;5.07;;;;;;;;;;5115949;28;20037;-78
2021/04/08 04:05:36;;;;;;;16.35;4.70;;;;;;;;;;5114509;28;20042;-77
2021/04/08 04:08:02;;;;;;;15.68;4.25;;;;;;;;;;5114405;28;20093;-78
2021/04/08 04:10:27;;;;;;;17.08;5.40;;;;;;;;;;5115481;28;20035;-77
2021/04/08 04:12:56;;;;;;;21.20;5.45;;;;;;;;;;5107941;28;20039;-78
2021/04/08 04:15:21;;;;;;;17.90;4.60;;;;;;;;;;5095039;28;20040;-77
2021/04/08 04:17:48;;;;;;;10.45;3.85;;;;;;;;;;5094820;28;20038;-77
2021/04/08 04:20:15;;;;;;;22.23;5.10;;;;;;;;;;5094743;28;20042;-78
2021/04/08 04:22:42;;;;;;;16.45;4.20;;;;;;;;;;5094864;28;20032;-77
2021/04/08 04:25:09;;;;;;;11.93;4.55;;;;;;;;;;5094718;28;20040;-77
2021/04/08 04:27:35;;;;;;;22.23;5.57;;;;;;;;;;5093816;28;20046;-77
2021/04/08 04:30:03;;;;;;;11.68;4.20;;;;;;;;;;5093995;28;20052;-78
2021/04/08 04:32:29;;;;;;;18.23;5.05;;;;;;;;;;5094760;28;20568;-77
2021/04/08 04:34:54;;;;;;;13.27;5.18;;;;;;;;;;5095192;28;20032;-77
2021/04/08 04:37:19;;;;;;;10.80;4.45;;;;;;;;;;5095007;28;20032;-77
2021/04/08 04:39:45;;;;;;;23.50;5.05;;;;;;;;;;5094498;28;20040;-76
2021/04/08 04:42:10;;;;;;;16.80;4.90;;;;;;;;;;5095153;28;20028;-76
2021/04/08 04:44:40;;;;;;;19.98;6.25;;;;;;;;;;5095245;28;20486;-76
2021/04/08 04:47:05;;;;;;;11.57;4.65;;;;;;;;;;5095905;28;20059;-76
2021/04/08 04:49:31;;;;;;;10.27;4.38;;;;;;;;;;5093383;28;20105;-76
2021/04/08 04:51:56;;;;;;;11.65;4.55;;;;;;;;;;5095392;28;20459;-76
2021/04/08 04:54:22;;;;;;;14.48;4.50;;;;;;;;;;5095341;28;20047;-76
2021/04/08 04:56:48;;;;;;;28.77;5.97;;;;;;;;;;5095386;28;20040;-76
2021/04/08 04:59:13;;;;;;;17.00;5.28;;;;;;;;;;5095057;28;20036;-76
2021/04/08 05:01:39;;;;;;;22.52;6.00;;;;;;;;;;5095381;28;20028;-76
2021/04/08 05:04:04;;;;;;;14.57;4.80;;;;;;;;;;5093484;28;20461;-77
2021/04/08 05:06:29;;;;;;;15.48;5.10;;;;;;;;;;5094021;28;20024;-76
2021/04/08 05:08:55;;;;;;;14.35;5.15;;;;;;;;;;5093504;28;20555;-77
2021/04/08 05:11:20;;;;;;;21.80;5.47;;;;;;;;;;5092845;28;20043;-77
2021/04/08 05:13:46;;;;;;;14.85;5.20;;;;;;;;;;5092888;28;20423;-76
2021/04/08 05:16:11;;;;;;;15.32;4.45;;;;;;;;;;5092818;28;20447;-77
2021/04/08 05:18:37;;;;;;;15.40;4.78;;;;;;;;;;5093332;28;20042;-77
2021/04/08 05:21:02;;;;;;;13.98;4.40;;;;;;;;;;5092715;28;20050;-77
2021/04/08 05:23:28;;;;;;;16.58;5.07;;;;;;;;;;5091658;28;20085;-76
2021/04/08 05:25:53;;;;;;;20.80;5.10;;;;;;;;;;5094088;28;20040;-77
2021/04/08 05:28:19;;;;;;;16.38;4.57;;;;;;;;;;5093667;28;20028;-77
2021/04/08 05:30:44;;;;;;;15.50;4.88;;;;;;;;;;5092705;28;20033;-76
2021/04/08 05:33:10;;;;;;;21.92;6.47;;;;;;;;;;5093400;28;20031;-77
2021/04/08 05:35:36;;;;;;;15.48;4.75;;;;;;;;;;5093598;28;20027;-77
2021/04/08 05:38:02;;;;;;;16.38;4.03;;;;;;;;;;5093007;28;20031;-77
2021/04/08 05:40:28;;;;;;;18.25;5.57;;;;;;;;;;5092795;28;20020;-77
2021/04/08 05:42:53;;;;;;;12.02;5.07;;;;;;;;;;5093394;28;20032;-77
2021/04/08 05:45:20;;;;;;;16.58;5.63;;;;;;;;;;5093335;28;20040;-77
2021/04/08 05:47:46;;;;;;;18.35;4.30;;;;;;;;;;5092934;28;20024;-77
2021/04/08 05:50:13;;;;;;;14.98;4.97;;;;;;;;;;5091087;28;20040;-77
2021/04/08 05:52:39;;;;;;;12.00;4.68;;;;;;;;;;5093044;28;20036;-77
2021/04/08 05:55:06;;;;;;;10.50;4.80;;;;;;;;;;5093419;28;20486;-76
2021/04/08 05:57:32;;;;;;;15.20;4.68;;;;;;;;;;5092545;28;20035;-77
2021/04/08 05:59:57;;;;;;;13.07;4.72;;;;;;;;;;5093079;28;20097;-76
2021/04/08 06:02:23;;;;;;;18.10;5.10;;;;;;;;;;5093362;28;20043;-77
2021/04/08 06:04:48;;;;;;;17.10;4.18;;;;;;;;;;5093594;28;20572;-77
2021/04/08 06:07:14;;;;;;;17.80;4.80;;;;;;;;;;5093326;28;20396;-77
2021/04/08 06:09:39;;;;;;;11.75;4.45;;;;;;;;;;5092621;28;20040;-77
2021/04/08 06:12:05;;;;;;;12.52;5.80;;;;;;;;;;5092670;28;20036;-78
2021/04/08 06:14:32;;;;;;;18.05;5.35;;;;;;;;;;5092539;28;20043;-76
2021/04/08 06:16:57;;;;;;;19.42;5.30;;;;;;;;;;5093200;28;20031;-76
2021/04/08 06:19:23;;;;;;;15.55;5.30;;;;;;;;;;5092725;28;20040;-79
2021/04/08 06:21:48;;;;;;;12.68;5.15;;;;;;;;;;5098176;28;20024;-78
2021/04/08 06:24:14;;;;;;;13.90;4.68;;;;;;;;;;5100205;28;20032;-77
2021/04/08 06:26:39;;;;;;;11.15;4.45;;;;;;;;;;5100921;28;20134;-77
2021/04/08 06:29:05;;;;;;;15.88;5.20;;;;;;;;;;5099810;28;20056;-78
2021/04/08 06:31:30;;;;;;;16.15;4.55;;;;;;;;;;5100310;28;20059;-77
2021/04/08 06:33:57;;;;;;;18.40;5.57;;;;;;;;;;5099522;28;20439;-79
2021/04/08 06:36:23;;;;;;;15.52;4.88;;;;;;;;;;5097839;28;20123;-77
2021/04/08 06:38:49;;;;;;;21.85;5.50;;;;;;;;;;5096809;28;20509;-76
2021/04/08 06:41:15;;;;;;;18.33;5.15;;;;;;;;;;5096561;28;20030;-78
2021/04/08 06:43:43;;;;;;;18.15;4.47;;;;;;;;;;5096983;28;20062;-75
2021/04/08 06:46:09;;;;;;;12.20;5.15;;;;;;;;;;5090104;28;20032;-76
2021/04/08 06:48:47;;;;;;;17.52;6.72;;;;;;;;;;5076558;28;20114;-76
2021/04/08 06:51:18;;;;;;;16.20;5.93;;;;;;;;;;5076667;28;20185;-76
2021/04/08 06:53:44;;;;;;;27.60;5.93;;;;;;;;;;5076742;28;20079;-79
2021/04/08 06:56:13;;;;;;;13.00;4.55;;;;;;;;;;5079311;28;20051;-81
2021/04/08 06:58:40;;;;;;;16.48;5.88;;;;;;;;;;5080743;28;20028;-78
2021/04/08 07:01:08;;;;;;;14.00;5.18;;;;;;;;;;5079501;28;20406;-77
2021/04/08 07:03:33;;;;;;;12.15;5.00;;;;;;;;;;5077994;28;20452;-77
2021/04/08 07:05:59;;;;;;;14.50;6.43;;;;;;;;;;5074837;28;20119;-77
2021/04/08 07:08:27;;;;;;;13.85;4.80;;;;;;;;;;5077434;28;20040;-78
2021/04/08 07:10:53;;;;;;;11.63;5.47;;;;;;;;;;5095894;28;20130;-77
2021/04/08 07:13:18;;;;;;;22.20;7.38;;;;;;;;;;5095382;28;20135;-77
2021/04/08 07:15:44;;;;;;;14.95;6.05;;;;;;;;;;5092284;28;20035;-77
2021/04/08 07:18:10;;;;;;;19.48;6.25;;;;;;;;;;5095907;28;20035;-76
2021/04/08 07:20:35;;;;;;;12.48;5.40;;;;;;;;;;5096103;28;20036;-77
2021/04/08 07:23:09;;;;;;;12.23;6.00;;;;;;;;;;5095906;28;20085;-77
2021/04/08 07:25:34;;;;;;;14.18;5.85;;;;;;;;;;5095594;28;20036;-77
2021/04/08 07:27:59;;;;;;;16.33;6.00;;;;;;;;;;5094646;28;20039;-77
2021/04/08 07:30:26;;;;;;;19.23;6.28;;;;;;;;;;5095559;28;20084;-77
2021/04/08 07:32:59;;;;;;;13.27;5.30;;;;;;;;;;5094729;28;20039;-77
2021/04/08 07:35:37;;;;;;;18.33;5.40;;;;;;;;;;5095430;28;20389;-77
2021/04/08 07:38:03;;;;;;;19.40;6.55;;;;;;;;;;5094107;28;20096;-77
2021/04/08 07:40:29;;;;;;;15.73;5.95;;;;;;;;;;5094408;28;20040;-77
2021/04/08 07:42:56;;;;;;;18.00;5.97;;;;;;;;;;5094368;28;20089;-77
2021/04/08 07:45:33;;;;;;;13.93;6.75;;;;;;;;;;5095583;28;20457;-77
2021/04/08 07:48:01;;;;;;;18.98;7.20;;;;;;;;;;5094516;28;20059;-77
2021/04/08 07:50:27;;;;;;;18.40;7.68;;;;;;;;;;5095342;28;20485;-77
2021/04/08 07:52:53;;;;;;;19.80;8.13;;;;;;;;;;5095106;28;20031;-77
2021/04/08 07:55:21;;;;;;;16.20;8.65;;;;;;;;;;5095379;28;20035;-77
2021/04/08 07:57:53;;;;;;;15.43;8.27;;;;;;;;;;5094727;28;20050;-77
2021/04/08 08:00:28;;;;;;;14.88;7.57;;;;;;;;;;5093932;28;20080;-77
2021/04/08 08:02:55;;;;;;;12.02;7.22;;;;;;;;;;5094900;28;20040;-76
2021/04/08 08:05:24;;;;;;;22.90;9.63;;;;;;;;;;5094987;28;20039;-77
2021/04/08 08:07:50;;;;;;;25.27;8.43;;;;;;;;;;5095054;28;20375;-77
2021/04/08 08:10:23;;;;;;;16.67;8.75;;;;;;;;;;5094957;28;20047;-77
2021/04/08 08:12:49;;;;;;;16.13;7.80;;;;;;;;;;5094099;28;20035;-77
2021/04/08 08:15:16;;;;;;;14.60;7.28;;;;;;;;;;5094751;28;20085;-76
2021/04/08 08:17:42;;;;;;;27.88;8.35;;;;;;;;;;5076373;28;20028;-77
2021/04/08 08:20:08;;;;;;;18.10;7.80;;;;;;;;;;5094792;28;20401;-77
2021/04/08 08:22:36;;;;;;;22.63;8.55;;;;;;;;;;5094820;28;20066;-77
2021/04/08 08:25:03;;;;;;;17.45;7.18;;;;;;;;;;5094653;28;20119;-77
2021/04/08 08:27:38;;;;;;;12.65;6.50;;;;;;;;;;5094585;28;20036;-77
2021/04/08 08:30:05;;;;;;;17.10;7.07;;;;;;;;;;5094329;28;20043;-77
2021/04/08 08:32:30;;;;;;;13.20;6.95;;;;;;;;;;5094207;28;20035;-77
2021/04/08 08:34:55;;;;;;;14.40;6.30;;;;;;;;;;5094627;28;20081;-77
2021/04/08 08:37:21;;;;;;;22.02;7.13;;;;;;;;;;5094539;28;20046;-77
2021/04/08 08:39:48;;;;;;;14.55;6.80;;;;;;;;;;5092819;28;20062;-76
2021/04/08 08:42:17;;;;;;;14.85;6.47;;;;;;;;;;5094175;28;20036;-76
2021/04/08 08:44:43;;;;;;;17.73;6.70;;;;;;;;;;5094193;28;20032;-76
2021/04/08 08:47:12;;;;;;;14.30;6.07;;;;;;;;;;5094053;28;20044;-76
2021/04/08 08:49:46;;;;;;;16.10;6.43;;;;;;;;;;5094377;28;20390;-76
2021/04/08 08:52:17;;;;;;;18.83;6.07;;;;;;;;;;5076607;28;20378;-77
2021/04/08 08:54:43;;;;;;;14.32;5.20;;;;;;;;;;5093983;28;20032;-77
2021/04/08 08:57:11;;;;;;;11.90;4.80;;;;;;;;;;5094082;28;20028;-77
2021/04/08 08:59:38;;;;;;;8.75;4.07;;;;;;;;;;5095559;28;20065;-77
2021/04/08 09:02:03;;;;;;;17.40;5.25;;;;;;;;;;5094082;28;20032;-77
2021/04/08 09:04:29;;;;;;;13.40;4.15;;;;;;;;;;5094166;28;20497;-77
2021/04/08 09:06:59;;;;;;;11.57;3.60;;;;;;;;;;5093909;28;20020;-77
2021/04/08 09:09:29;;;;;;;10.95;3.55;;;;;;;;;;5093281;28;20032;-77
2021/04/08 09:11:58;;;;;;;10.15;3.50;;;;;;;;;;5091446;28;20114;-77
2021/04/08 09:14:23;;;;;;;13.13;3.47;;;;;;;;;;5093861;28;20035;-77
2021/04/08 09:16:51;;;;;;;13.20;4.47;;;;;;;;;;5093886;28;20118;-77
2021/04/08 09:19:34;;;;;;;10.70;3.33;;;;;;;;;;5093777;28;20032;-77
2021/04/08 09:22:03;;;;;;;10.73;4.63;;;;;;;;;;5093814;28;20040;-77
2021/04/08 09:24:46;;;;;;;8.40;3.22;;;;;;;;;;5092497;28;20028;-77
2021/04/08 09:27:13;;;;;;;12.80;3.28;;;;;;;;;;5094094;28;20366;-76
2021/04/08 09:29:42;;;;;;;10.43;4.07;;;;;;;;;;5095718;28;20036;-79
2021/04/08 09:32:25;;;;;;;11.23;3.78;;;;;;;;;;5095272;28;20048;-77
2021/04/08 09:35:06;;;;;;;9.05;2.47;;;;;;;;;;5095288;28;20040;-76
2021/04/08 09:37:43;;;;;;;8.52;2.38;;;;;;;;;;5091675;28;20557;-76
2021/04/08 09:40:09;;;;;;;9.45;2.30;;;;;;;;;;5093029;28;20078;-75
2021/04/08 09:42:39;;;;;;;10.75;2.72;;;;;;;;;;5076196;28;20036;-76
2021/04/08 09:45:05;;;;;;;12.32;2.63;;;;;;;;;;5094579;28;20478;-77
2021/04/08 09:47:34;;;;;;;6.65;2.45;;;;;;;;;;5097579;28;20385;-79
2021/04/08 09:49:59;;;;;;;9.85;2.80;;;;;;;;;;5098819;28;20428;-81
2021/04/08 09:52:25;;;;;;;7.50;2.72;;;;;;;;;;5096823;28;20032;-80
2021/04/08 09:54:56;;;;;;;9.02;2.72;;;;;;;;;;5094588;28;20028;-83
2021/04/08 09:57:37;;;;;;;11.65;2.97;;;;;;;;;;5097891;28;20036;-82
2021/04/08 10:00:14;;;;;;;7.15;2.58;;;;;;;;;;5103987;28;20028;-83
2021/04/08 10:02:59;;;;;;;11.73;2.50;;;;;;;;;;5098920;28;20087;-83
2021/04/08 10:05:37;;;;;;;12.02;2.85;;;;;;;;;;5098353;28;20043;-84
2021/04/08 10:08:04;;;;;;;13.30;3.30;;;;;;;;;;5097134;28;20051;-79
2021/04/08 10:10:35;;;;;;;8.77;3.35;;;;;;;;;;5096428;28;20028;-77
2021/04/08 10:13:12;;;;;;;8.30;3.28;;;;;;;;;;5096036;28;20035;-77
2021/04/08 10:15:38;;;;;;;11.65;3.17;;;;;;;;;;5093797;28;20172;-77
2021/04/08 10:18:10;;;;;;;8.82;3.20;;;;;;;;;;5072440;28;20471;-77
2021/04/08 10:20:40;;;;;;;8.60;2.83;;;;;;;;;;5074161;28;20086;-76
2021/04/08 10:23:06;;;;;;;5.88;2.63;;;;;;;;;;5093445;28;20529;-77
2021/04/08 10:25:33;;;;;;;6.82;2.10;;;;;;;;;;5094593;28;20436;-77
2021/04/08 10:27:58;;;;;;;8.73;2.50;;;;;;;;;;5095232;28;20032;-76
2021/04/08 10:30:24;;;;;;;6.93;1.90;;;;;;;;;;5093998;28;20113;-76
2021/04/08 10:32:50;;;;;;;6.82;2.33;;;;;;;;;;5095590;28;20107;-76
2021/04/08 10:35:27;;;;;;;9.40;2.17;;;;;;;;;;5093575;28;20032;-76
2021/04/08 10:38:07;;;;;;;8.55;2.55;;;;;;;;;;5094120;28;20119;-77
2021/04/08 10:40:50;;;;;;;5.22;2.10;;;;;;;;;;5096897;28;20043;-76
2021/04/08 10:43:17;;;;;;;10.18;2.25;;;;;;;;;;5093909;28;20080;-77
2021/04/08 10:45:51;;;;;;;6.32;1.98;;;;;;;;;;5096547;28;20434;-77
2021/04/08 10:48:17;;;;;;;6.88;2.20;;;;;;;;;;5097377;28;20440;-77
2021/04/08 10:50:42;;;;;;;8.18;2.70;;;;;;;;;;5095319;28;20062;-77
2021/04/08 10:53:07;;;;;;;8.27;2.10;;;;;;;;;;5093112;28;20043;-78
2021/04/08 10:55:33;;;;;;;7.00;2.40;;;;;;;;;;5094790;28;20036;-76
2021/04/08 10:57:59;;;;;;;10.77;2.03;;;;;;;;;;5096712;28;20451;-76
2021/04/08 11:00:24;;;;;;;10.43;2.25;;;;;;;;;;5097174;28;20063;-76
2021/04/08 11:02:50;;;;;;;10.48;2.38;;;;;;;;;;5096875;28;20072;-76
2021/04/08 11:05:21;;;;;;;5.88;1.88;;;;;;;;;;5095972;28;20032;-75
2021/04/08 11:07:49;;;;;;;9.38;1.80;;;;;;;;;;5093823;28;20047;-76
2021/04/08 11:10:14;;;;;;;7.47;1.73;;;;;;;;;;5095639;28;20078;-76
2021/04/08 11:12:40;;;;;;;10.02;2.17;;;;;;;;;;5096099;28;20032;-77
2021/04/08 11:15:07;;;;;;;7.03;1.85;;;;;;;;;;5094842;28;20028;-76
2021/04/08 11:17:35;;;;;;;12.20;2.10;;;;;;;;;;5096508;28;20093;-76
2021/04/08 11:20:02;;;;;;;9.90;1.88;;;;;;;;;;5096477;28;20097;-77
2021/04/08 11:22:32;;;;;;;11.50;2.25;;;;;;;;;;5094972;28;20031;-77
2021/04/08 11:24:59;;;;;;;7.07;2.05;;;;;;;;;;5096211;28;20145;-76
2021/04/08 11:27:36;;;;;;;10.57;1.92;;;;;;;;;;5098138;28;20028;-77
2021/04/08 11:30:04;;;;;;;7.88;1.55;;;;;;;;;;5096181;28;20048;-77
2021/04/08 11:32:30;;;;;;;8.15;2.10;;;;;;;;;;5096196;28;20040;-76
2021/04/08 11:34:57;;;;;;;4.53;1.65;;;;;;;;;;5096363;28;20039;-77
2021/04/08 11:37:34;;;;;;;8.95;1.75;;;;;;;;;;5096301;28;20485;-76
2021/04/08 11:40:00;;;;;;;6.72;2.00;;;;;;;;;;5094538;28;20032;-77
2021/04/08 11:42:32;;;;;;;7.85;2.03;;;;;;;;;;5097067;28;20371;-76
2021/04/08 11:44:58;;;;;;;9.90;2.13;;;;;;;;;;5099098;28;20036;-76
2021/04/08 11:47:23;;;;;;;7.07;2.17;;;;;;;;;;5094552;28;20032;-76
2021/04/08 11:49:54;;;;;;;8.32;2.05;;;;;;;;;;5095654;28;20044;-76
2021/04/08 11:52:27;;;;;;;8.30;1.95;;;;;;;;;;5094441;28;20039;-75
2021/04/08 11:55:01;;;;;;;11.82;3.13;;;;;;;;;;5095299;28;20119;-76
2021/04/08 11:57:28;;;;;;;6.22;1.92;;;;;;;;;;5095116;28;20460;-76
2021/04/08 12:00:12;;;;;;;6.72;1.77;;;;;;;;;;5094686;28;20545;-76
2021/04/08 12:02:39;;;;;;;5.18;1.88;;;;;;;;;;5093802;28;20081;-76
2021/04/08 12:05:11;;;;;;;8.80;1.80;;;;;;;;;;5095151;28;20473;-75
2021/04/08 12:07:46;;;;;;;9.85;2.85;;;;;;;;;;5094996;28;20040;-75
2021/04/08 12:10:23;;;;;;;10.00;2.20;;;;;;;;;;5096248;28;20427;-77
2021/04/08 12:12:58;;;;;;;6.10;1.83;;;;;;;;;;5096347;28;20047;-77
2021/04/08 12:15:34;;;;;;;6.38;2.00;;;;;;;;;;5097418;28;20047;-77
2021/04/08 12:18:00;;;;;;;7.78;1.95;;;;;;;;;;5098040;28;20036;-77
2021/04/08 12:20:27;;;;;;;8.27;1.80;;;;;;;;;;5095646;28;20124;-77
2021/04/08 12:22:53;;;;;;;7.45;1.92;;;;;;;;;;5096167;28;20047;-76
2021/04/08 12:25:20;;;;;;;6.32;2.30;;;;;;;;;;5096423;28;20141;-76
2021/04/08 12:27:47;;;;;;;8.50;1.75;;;;;;;;;;5077587;28;20065;-76
2021/04/08 12:30:14;;;;;;;5.22;1.50;;;;;;;;;;5095351;28;20139;-76
2021/04/08 12:32:40;;;;;;;5.95;1.67;;;;;;;;;;5094997;28;20493;-77
2021/04/08 12:35:08;;;;;;;5.97;1.88;;;;;;;;;;5093960;28;20032;-77
2021/04/08 12:37:34;;;;;;;5.93;1.90;;;;;;;;;;5095823;28;20043;-76
2021/04/08 12:39:59;;;;;;;7.68;1.52;;;;;;;;;;5093326;28;20036;-76
2021/04/08 12:42:25;;;;;;;9.63;2.10;;;;;;;;;;5094100;28;20020;-77
2021/04/08 12:44:51;;;;;;;6.88;3.38;;;;;;;;;;5095950;28;20058;-76
2021/04/08 12:47:18;;;;;;;9.10;2.10;;;;;;;;;;5094609;28;20046;-76
2021/04/08 12:49:43;;;;;;;7.13;1.75;;;;;;;;;;5096841;28;20040;-77
2021/04/08 12:52:09;;;;;;;3.13;1.52;;;;;;;;;;5097533;28;20036;-76
2021/04/08 12:54:36;;;;;;;5.10;1.80;;;;;;;;;;5098159;28;20643;-76
2021/04/08 12:57:02;;;;;;;5.65;1.73;;;;;;;;;;5099211;28;20057;-77
2021/04/08 12:59:29;;;;;;;6.38;1.83;;;;;;;;;;5098450;28;20044;-77
2021/04/08 13:01:55;;;;;;;11.25;2.08;;;;;;;;;;5098722;28;20036;-77
2021/04/08 13:04:20;;;;;;;6.78;1.88;;;;;;;;;;5098624;28;20032;-77
2021/04/08 13:06:46;;;;;;;6.25;1.63;;;;;;;;;;5100267;28;20035;-77
2021/04/08 13:09:12;;;;;;;9.63;2.10;;;;;;;;;;5098736;28;20382;-76
2021/04/08 13:11:39;;;;;;;3.75;1.80;;;;;;;;;;5097654;28;20036;-76
2021/04/08 13:14:05;;;;;;;5.18;2.05;;;;;;;;;;5099393;28;20115;-77
2021/04/08 13:16:31;;;;;;;6.88;2.05;;;;;;;;;;5099502;28;20075;-76
2021/04/08 13:18:56;;;;;;;7.28;2.58;;;;;;;;;;5098220;28;20050;-77
2021/04/08 13:21:21;;;;;;;6.40;2.20;;;;;;;;;;5099998;28;20032;-76
2021/04/08 13:23:47;;;;;;;6.72;2.08;;;;;;;;;;5100543;28;20497;-76
2021/04/08 13:26:12;;;;;;;6.78;3.20;;;;;;;;;;5097762;28;20039;-77
2021/04/08 13:28:38;;;;;;;8.38;2.60;;;;;;;;;;5094325;28;20488;-76
2021/04/08 13:31:03;;;;;;;7.13;2.70;;;;;;;;;;5093853;28;20047;-76
2021/04/08 13:33:31;;;;;;;7.30;2.60;;;;;;;;;;5101113;28;20027;-78
2021/04/08 13:36:02;;;;;;;9.32;2.65;;;;;;;;;;5091602;28;20040;-78
2021/04/08 13:38:27;;;;;;;4.28;2.42;;;;;;;;;;5107900;28;20036;-78
2021/04/08 13:40:53;;;;;;;10.02;2.63;;;;;;;;;;5100868;28;20043;-80
2021/04/08 13:43:18;;;;;;;13.88;3.33;;;;;;;;;;5099493;28;20039;-78
2021/04/08 13:45:44;;;;;;;13.45;2.83;;;;;;;;;;5103813;28;20114;-78
2021/04/08 13:48:09;;;;;;;10.38;2.58;;;;;;;;;;5097811;28;20491;-76
2021/04/08 13:50:35;;;;;;;7.88;3.22;;;;;;;;;;5097061;28;20032;-77
2021/04/08 13:53:00;;;;;;;8.38;3.05;;;;;;;;;;5103080;28;20062;-76
2021/04/08 13:55:26;;;;;;;7.45;3.22;;;;;;;;;;5102378;28;20032;-76
2021/04/08 13:57:52;;;;;;;5.68;2.60;;;;;;;;;;5102614;28;20063;-77
2021/04/08 14:00:22;;;;;;;9.55;3.22;;;;;;;;;;5095534;28;20036;-77
2021/04/08 14:02:48;;;;;;;7.60;2.55;;;;;;;;;;5094474;28;20028;-77
2021/04/08 14:05:15;;;;;;;6.30;2.88;;;;;;;;;;5095181;28;20169;-77
2021/04/08 14:07:42;;;;;;;5.13;2.67;;;;;;;;;;5096405;28;20040;-76
2021/04/08 14:10:09;;;;;;;6.80;3.35;;;;;;;;;;5094954;28;20086;-77
2021/04/08 14:12:35;;;;;;;9.20;3.30;;;;;;;;;;5096895;28;20032;-77
2021/04/08 14:15:00;;;;;;;12.68;3.28;;;;;;;;;;5097991;28;20500;-77
2021/04/08 14:17:26;;;;;;;5.63;2.67;;;;;;;;;;5096181;28;20046;-77
2021/04/08 14:19:51;;;;;;;7.32;2.30;;;;;;;;;;5096112;28;20103;-79
2021/04/08 14:22:17;;;;;;;14.05;3.00;;;;;;;;;;5099690;28;20390;-77
2021/04/08 14:24:42;;;;;;;17.05;2.92;;;;;;;;;;5094073;28;20167;-77
2021/04/08 14:27:08;;;;;;;8.88;2.90;;;;;;;;;;5094084;28;20028;-76
2021/04/08 14:29:33;;;;;;;7.95;3.03;;;;;;;;;;5092967;28;20060;-77
2021/04/08 14:31:59;;;;;;;8.68;3.13;;;;;;;;;;5093018;28;20035;-76
2021/04/08 14:34:24;;;;;;;7.35;2.92;;;;;;;;;;5093307;28;20035;-77
2021/04/08 14:36:50;;;;;;;8.38;3.13;;;;;;;;;;5096149;28;20401;-78
2021/04/08 14:39:16;;;;;;;5.75;2.65;;;;;;;;;;5097193;28;20495;-81